Time;durP1;ratioP1;P1;durP2;ratioP2;P2;SDS_P1;SDS_P2;PMS_P1;PMS_P2;Temp;Humidity;BMP_temperature;BMP_pressure;BME280_temperature;BME280_humidity;BME280_pressure;Samples;Min_cycle;Max_cycle;Signal;HPM_P1;HPM_P2
2022/08/20 00:02:14;;;;;;;1.60;1.50;;;25.10;57.90;;;;;;5008632;28;20898;-73
2022/08/20 00:04:43;;;;;;;1.73;1.47;;;25.10;57.90;;;;;;5023644;28;20472;-73
2022/08/20 00:07:12;;;;;;;2.17;1.80;;;25.10;57.70;;;;;;5010044;28;20471;-72
2022/08/20 00:09:41;;;;;;;2.23;1.50;;;25.10;57.60;;;;;;5008909;28;20507;-73
2022/08/20 00:12:11;;;;;;;1.67;1.57;;;25.10;57.70;;;;;;5025524;28;20506;-73
2022/08/20 00:14:40;;;;;;;1.43;1.03;;;25.10;57.90;;;;;;5002595;28;20530;-73
2022/08/20 00:17:10;;;;;;;2.67;1.90;;;25.10;57.70;;;;;;5008353;28;20466;-73
2022/08/20 00:19:38;;;;;;;1.50;1.40;;;25.10;57.70;;;;;;5011022;28;20477;-73
2022/08/20 00:22:07;;;;;;;1.23;1.13;;;25.10;57.50;;;;;;5021827;28;20514;-72
2022/08/20 00:24:35;;;;;;;1.40;1.30;;;25.10;57.30;;;;;;5002700;28;20569;-72
2022/08/20 00:27:03;;;;;;;1.70;1.60;;;25.10;57.50;;;;;;5009542;28;20432;-72
2022/08/20 00:29:32;;;;;;;2.10;1.20;;;25.10;57.40;;;;;;4998091;28;20499;-73
2022/08/20 00:32:00;;;;;;;1.93;1.40;;;25.10;57.40;;;;;;5026479;28;20826;-73
2022/08/20 00:34:30;;;;;;;1.20;1.10;;;25.10;57.60;;;;;;4994557;28;20943;-73
2022/08/20 00:36:59;;;;;;;1.83;1.60;;;25.00;57.40;;;;;;5025209;28;20529;-73
2022/08/20 00:39:27;;;;;;;1.47;1.37;;;25.10;57.30;;;;;;4998112;28;20487;-72
2022/08/20 00:41:59;;;;;;;1.27;1.17;;;25.10;57.20;;;;;;4985940;28;21003;-73
2022/08/20 00:44:27;;;;;;;1.40;1.30;;;25.10;57.10;;;;;;4984351;28;20465;-72
2022/08/20 00:46:56;;;;;;;1.43;1.33;;;25.10;57.10;;;;;;4989634;28;21044;-72
2022/08/20 00:49:27;;;;;;;1.70;1.30;;;25.10;57.10;;;;;;4982101;28;20712;-73
2022/08/20 00:52:01;;;;;;;1.47;1.20;;;25.10;57.20;;;;;;5002743;28;20472;-72
2022/08/20 00:54:35;;;;;;;2.07;1.50;;;25.10;57.30;;;;;;4997533;28;20656;-72
2022/08/20 00:57:11;;;;;;;1.53;1.43;;;25.10;57.50;;;;;;4986808;28;21023;-72
2022/08/20 00:59:42;;;;;;;2.30;1.40;;;25.10;57.30;;;;;;4984916;28;20460;-72
2022/08/20 01:02:14;;;;;;;1.50;1.40;;;25.10;57.20;;;;;;5024238;23;20524;-73
2022/08/20 01:04:45;;;;;;;1.83;1.40;;;25.10;57.30;;;;;;5035646;28;20522;-70
2022/08/20 01:07:16;;;;;;;1.60;1.50;;;25.10;57.50;;;;;;5039597;28;20498;-70
2022/08/20 01:09:44;;;;;;;1.53;1.43;;;25.10;57.50;;;;;;5043883;28;20986;-70
2022/08/20 01:12:28;;;;;;;1.67;1.57;;;25.10;57.50;;;;;;5042063;28;20519;-70
2022/08/20 01:14:58;;;;;;;1.63;1.40;;;25.10;57.40;;;;;;5025843;28;21010;-70
2022/08/20 01:17:31;;;;;;;1.10;1.00;;;25.10;57.50;;;;;;5031232;28;20813;-70
2022/08/20 01:20:05;;;;;;;1.37;1.27;;;25.10;57.40;;;;;;5041159;28;20572;-70
2022/08/20 01:25:33;;;;;;;1.20;1.10;;;25.10;57.30;;;;;;5024019;28;20534;-73
2022/08/20 01:28:03;;;;;;;2.33;1.30;;;25.10;57.20;;;;;;5020804;28;20924;-70
2022/08/20 01:30:32;;;;;;;1.70;1.40;;;25.10;57.10;;;;;;5040713;28;20468;-71
2022/08/20 01:33:01;;;;;;;1.50;1.37;;;25.10;57.20;;;;;;5042666;28;20484;-70
2022/08/20 01:35:34;;;;;;;1.33;1.13;;;25.10;57.30;;;;;;5012918;28;20567;-70
2022/08/20 01:38:03;;;;;;;1.30;1.20;;;25.10;57.40;;;;;;5019794;28;20490;-70
2022/08/20 01:40:48;;;;;;;1.37;1.27;;;25.10;57.40;;;;;;5017303;28;20881;-70
2022/08/20 01:43:18;;;;;;;2.03;1.47;;;25.10;57.40;;;;;;5024435;28;20460;-70
2022/08/20 01:45:49;;;;;;;1.30;1.20;;;25.00;57.20;;;;;;5045746;28;20452;-70
2022/08/20 01:48:18;;;;;;;1.37;1.10;;;25.10;57.20;;;;;;5025843;28;20885;-70
2022/08/20 01:50:54;;;;;;;2.00;1.10;;;25.10;57.20;;;;;;5035247;28;20453;-70
2022/08/20 01:53:27;;;;;;;1.40;1.27;;;25.00;57.20;;;;;;5026106;28;20971;-70
2022/08/20 01:55:56;;;;;;;1.40;1.30;;;25.10;57.50;;;;;;5019655;28;20787;-70
2022/08/20 01:58:28;;;;;;;1.37;1.10;;;25.00;57.20;;;;;;5011876;28;20437;-70
2022/08/20 02:00:57;;;;;;;1.77;1.17;;;25.10;57.20;;;;;;5042146;28;20517;-70
2022/08/20 02:03:26;;;;;;;1.40;1.30;;;25.10;57.20;;;;;;5047618;28;20482;-70
2022/08/20 02:05:54;;;;;;;1.30;1.13;;;25.10;57.40;;;;;;5039681;28;20484;-70
2022/08/20 02:08:23;;;;;;;1.93;1.30;;;25.10;57.40;;;;;;5042414;28;20475;-70
2022/08/20 02:10:51;;;;;;;1.43;1.33;;;25.00;57.30;;;;;;5046552;28;20959;-70
2022/08/20 02:13:20;;;;;;;1.70;1.60;;;25.00;57.30;;;;;;5041997;28;20468;-70
2022/08/20 02:15:50;;;;;;;1.50;1.40;;;25.00;57.40;;;;;;5047173;28;20514;-70
2022/08/20 02:18:19;;;;;;;1.10;1.00;;;25.00;57.30;;;;;;5025153;28;20439;-70
2022/08/20 02:20:50;;;;;;;1.20;1.10;;;25.00;57.30;;;;;;5029457;28;20440;-70
2022/08/20 02:23:19;;;;;;;1.83;1.70;;;25.00;57.30;;;;;;5026568;28;20468;-70
2022/08/20 02:25:48;;;;;;;1.80;1.30;;;25.00;57.30;;;;;;5021202;28;20468;-70
2022/08/20 02:28:20;;;;;;;1.30;1.20;;;25.00;57.30;;;;;;5038793;28;20444;-70
2022/08/20 02:30:54;;;;;;;1.87;1.40;;;25.00;57.20;;;;;;5026843;28;20445;-70
2022/08/20 02:33:23;;;;;;;1.57;1.20;;;25.00;57.30;;;;;;5012896;28;20495;-70
2022/08/20 02:35:55;;;;;;;1.33;1.20;;;25.00;57.30;;;;;;5042505;28;20502;-70
2022/08/20 02:38:25;;;;;;;3.43;1.50;;;25.00;57.40;;;;;;5019844;28;20523;-70
2022/08/20 02:40:54;;;;;;;1.87;1.17;;;25.00;57.30;;;;;;5030239;28;20837;-70
2022/08/20 02:43:22;;;;;;;1.47;1.37;;;25.00;57.40;;;;;;5031872;28;20471;-70
2022/08/20 02:45:52;;;;;;;1.60;1.50;;;25.00;57.60;;;;;;5030902;28;20428;-70
2022/08/20 02:48:21;;;;;;;1.70;1.23;;;25.00;57.70;;;;;;5033517;28;20428;-70
2022/08/20 02:50:53;;;;;;;1.90;1.80;;;25.00;57.70;;;;;;5029396;28;20538;-70
2022/08/20 02:53:22;;;;;;;1.60;1.50;;;25.00;57.80;;;;;;5021837;28;20463;-70
2022/08/20 02:55:51;;;;;;;1.60;1.50;;;25.00;57.90;;;;;;5042846;28;20451;-70
2022/08/20 02:58:20;;;;;;;1.70;1.60;;;25.00;58.00;;;;;;5028547;28;20444;-70
2022/08/20 03:00:50;;;;;;;2.00;1.90;;;25.00;58.10;;;;;;5035056;28;20827;-70
2022/08/20 03:03:21;;;;;;;2.10;2.00;;;25.00;58.20;;;;;;5035765;28;20486;-70
2022/08/20 03:05:52;;;;;;;2.40;2.07;;;25.00;58.20;;;;;;5038885;28;20456;-70
2022/08/20 03:08:21;;;;;;;1.30;1.20;;;25.00;58.10;;;;;;5036621;28;20436;-66
2022/08/20 03:10:50;;;;;;;1.67;1.57;;;24.90;58.10;;;;;;5020347;28;20524;-67
2022/08/20 03:13:19;;;;;;;1.40;1.30;;;24.90;58.10;;;;;;5018881;28;20483;-67
2022/08/20 03:15:50;;;;;;;2.77;1.73;;;24.90;58.00;;;;;;5026582;28;20531;-67
2022/08/20 03:18:29;;;;;;;2.33;1.80;;;24.90;58.10;;;;;;5033080;28;20440;-67
2022/08/20 03:20:57;;;;;;;1.77;1.60;;;24.90;58.10;;;;;;5033540;28;20495;-67
2022/08/20 03:23:25;;;;;;;1.37;1.27;;;24.90;58.00;;;;;;5022554;28;20491;-67
2022/08/20 03:25:54;;;;;;;1.70;1.60;;;24.90;59.30;;;;;;5033673;28;20448;-67
2022/08/20 03:28:22;;;;;;;1.90;1.73;;;24.90;58.20;;;;;;5031430;28;20539;-66
2022/08/20 03:30:52;;;;;;;2.77;2.23;;;24.90;58.30;;;;;;5000516;28;20439;-67
2022/08/20 03:33:21;;;;;;;2.83;2.50;;;24.90;58.20;;;;;;5008395;28;20472;-67
2022/08/20 03:35:51;;;;;;;1.90;1.80;;;24.90;58.30;;;;;;4998557;28;20538;-67
2022/08/20 03:38:22;;;;;;;2.23;2.07;;;24.90;58.40;;;;;;5009641;28;20794;-67
2022/08/20 03:41:00;;;;;;;1.80;1.70;;;24.90;58.30;;;;;;4995358;28;20516;-67
2022/08/20 03:43:29;;;;;;;2.17;1.97;;;24.90;58.40;;;;;;5001789;28;20554;-67
2022/08/20 03:45:58;;;;;;;2.60;2.40;;;24.90;58.30;;;;;;5004886;28;20467;-67
2022/08/20 03:48:27;;;;;;;5.33;1.87;;;24.90;58.50;;;;;;4995876;28;20463;-67
2022/08/20 03:50:59;;;;;;;1.70;1.60;;;24.90;58.30;;;;;;5026210;28;20539;-67
2022/08/20 03:53:30;;;;;;;2.60;2.40;;;24.90;58.40;;;;;;5018789;28;20479;-67
2022/08/20 03:56:02;;;;;;;2.27;1.70;;;24.90;58.40;;;;;;5008696;28;20440;-67
2022/08/20 03:58:32;;;;;;;2.53;2.33;;;24.90;58.30;;;;;;5012793;28;22195;-67
2022/08/20 04:01:04;;;;;;;2.40;2.20;;;24.90;58.40;;;;;;5027814;28;20843;-67
2022/08/20 04:03:33;;;;;;;2.43;2.23;;;24.90;58.40;;;;;;5010137;28;20894;-67
2022/08/20 04:06:03;;;;;;;2.83;2.40;;;24.90;58.40;;;;;;5004908;28;20451;-67
2022/08/20 04:08:32;;;;;;;2.40;1.80;;;24.90;58.50;;;;;;5012935;28;21035;-67
2022/08/20 04:11:00;;;;;;;2.13;1.97;;;24.90;58.40;;;;;;5045819;28;20435;-67
2022/08/20 04:13:30;;;;;;;3.30;2.10;;;24.90;58.30;;;;;;5018359;28;20467;-67
2022/08/20 04:16:02;;;;;;;2.43;1.90;;;24.80;58.30;;;;;;5038665;28;20440;-67
2022/08/20 04:18:31;;;;;;;2.00;1.90;;;24.90;58.40;;;;;;5037550;28;20474;-67
2022/08/20 04:20:59;;;;;;;2.07;1.87;;;24.80;58.30;;;;;;5009413;28;20472;-67
2022/08/20 04:23:30;;;;;;;2.73;2.17;;;24.80;58.30;;;;;;5000455;28;20456;-67
2022/08/20 04:25:59;;;;;;;2.40;2.13;;;24.80;58.50;;;;;;5009401;28;21011;-67
2022/08/20 04:28:28;;;;;;;3.57;3.23;;;24.80;58.50;;;;;;5034192;28;20439;-67
2022/08/20 04:30:59;;;;;;;2.93;2.73;;;24.80;58.80;;;;;;5018447;28;20443;-67
2022/08/20 04:33:29;;;;;;;4.07;3.77;;;24.80;58.80;;;;;;5012839;28;20887;-67
2022/08/20 04:36:04;;;;;;;3.50;3.10;;;24.80;58.60;;;;;;5017161;28;20451;-67
2022/08/20 04:38:35;;;;;;;3.07;2.87;;;24.70;58.60;;;;;;5032046;28;21009;-67
2022/08/20 04:41:18;;;;;;;2.67;2.50;;;24.70;58.60;;;;;;5033932;28;21022;-67
2022/08/20 04:43:52;;;;;;;3.70;3.50;;;24.70;58.60;;;;;;5030783;28;20469;-66
2022/08/20 04:46:22;;;;;;;2.87;2.67;;;24.70;58.60;;;;;;5010274;28;20877;-67
2022/08/20 04:48:51;;;;;;;3.13;2.93;;;24.70;58.60;;;;;;5031185;28;20470;-67
2022/08/20 04:51:19;;;;;;;4.00;3.00;;;24.70;58.60;;;;;;5009018;28;20440;-67
2022/08/20 04:53:52;;;;;;;3.80;3.37;;;24.70;58.60;;;;;;5028802;28;20546;-67
2022/08/20 04:56:23;;;;;;;3.20;2.90;;;24.70;58.50;;;;;;5026592;28;20424;-67
2022/08/20 04:58:53;;;;;;;3.77;2.90;;;24.70;58.50;;;;;;5012578;28;20472;-67
2022/08/20 05:01:22;;;;;;;4.20;3.80;;;24.70;58.50;;;;;;5027749;28;20851;-67
2022/08/20 05:03:53;;;;;;;5.20;2.93;;;24.70;58.60;;;;;;5024772;28;20443;-67
2022/08/20 05:06:24;;;;;;;3.70;2.60;;;24.70;58.50;;;;;;5041137;28;20463;-67
2022/08/20 05:08:54;;;;;;;2.50;2.30;;;24.70;58.50;;;;;;5042386;28;20955;-67
2022/08/20 05:11:23;;;;;;;3.90;2.23;;;24.70;58.40;;;;;;5026430;28;20431;-67
2022/08/20 05:14:05;;;;;;;4.53;2.20;;;24.70;58.30;;;;;;5024181;28;20483;-67
2022/08/20 05:16:39;;;;;;;2.63;2.33;;;24.70;58.30;;;;;;5026639;28;20501;-67
2022/08/20 05:19:10;;;;;;;2.60;2.20;;;24.70;58.30;;;;;;5025023;28;20440;-66
2022/08/20 05:21:38;;;;;;;2.50;2.30;;;24.70;58.30;;;;;;5009709;28;20536;-67
2022/08/20 05:24:09;;;;;;;3.03;2.83;;;24.70;58.20;;;;;;5008985;28;21057;-67
2022/08/20 05:26:37;;;;;;;3.23;2.93;;;24.70;58.30;;;;;;5000486;28;20476;-67
2022/08/20 05:29:07;;;;;;;3.60;2.80;;;24.70;58.40;;;;;;5000729;28;20857;-67
2022/08/20 05:31:37;;;;;;;4.03;3.20;;;24.70;58.30;;;;;;5009747;28;20708;-67
2022/08/20 05:34:08;;;;;;;3.10;2.77;;;24.70;58.20;;;;;;5008611;28;20475;-67
2022/08/20 05:36:39;;;;;;;5.13;2.57;;;24.70;58.20;;;;;;5004766;28;20890;-67
2022/08/20 05:39:10;;;;;;;3.23;2.97;;;24.70;58.10;;;;;;5001256;28;20440;-67
2022/08/20 05:41:38;;;;;;;3.03;2.60;;;24.70;58.10;;;;;;5009425;28;20498;-67
2022/08/20 05:44:09;;;;;;;2.40;2.20;;;24.70;58.10;;;;;;4999258;28;20538;-67
2022/08/20 05:46:39;;;;;;;2.87;2.67;;;24.60;57.80;;;;;;5011919;28;20445;-67
2022/08/20 05:49:07;;;;;;;2.80;2.60;;;24.60;57.90;;;;;;5023554;28;20443;-67
2022/08/20 05:51:36;;;;;;;2.63;2.43;;;24.60;58.00;;;;;;5015644;28;20440;-67
2022/08/20 05:54:06;;;;;;;2.83;2.63;;;24.60;57.90;;;;;;5016254;28;20476;-67
2022/08/20 05:56:36;;;;;;;3.40;2.40;;;24.60;57.80;;;;;;5009243;28;20828;-67
2022/08/20 05:59:07;;;;;;;3.07;2.73;;;24.60;57.80;;;;;;5009841;28;20527;-67
2022/08/20 06:01:38;;;;;;;2.83;2.63;;;24.60;57.70;;;;;;5011730;28;20436;-67
2022/08/20 06:04:27;;;;;;;2.60;2.27;;;24.60;57.70;;;;;;5001522;28;20619;-67
2022/08/20 06:07:01;;;;;;;4.33;3.20;;;24.60;57.80;;;;;;5009806;28;20991;-67
2022/08/20 06:09:30;;;;;;;3.67;2.27;;;24.60;57.70;;;;;;5020456;28;20518;-67
2022/08/20 06:12:04;;;;;;;2.57;2.37;;;24.60;57.80;;;;;;5022376;28;20468;-71
2022/08/20 06:14:33;;;;;;;2.17;2.07;;;24.50;57.80;;;;;;5015074;28;20843;-71
2022/08/20 06:17:04;;;;;;;3.17;2.87;;;24.50;57.70;;;;;;5016201;28;20520;-70
2022/08/20 06:19:34;;;;;;;3.20;2.90;;;24.60;57.70;;;;;;5029894;28;20488;-71
2022/08/20 06:22:04;;;;;;;3.97;3.67;;;24.60;57.70;;;;;;5021782;28;20443;-71
2022/08/20 06:24:48;;;;;;;3.43;3.17;;;24.50;57.60;;;;;;5026649;28;20496;-70
2022/08/20 06:27:19;;;;;;;3.03;2.73;;;24.50;57.50;;;;;;5009321;28;20928;-71
2022/08/20 06:29:48;;;;;;;3.10;2.90;;;24.60;57.70;;;;;;5003716;28;20464;-71
2022/08/20 06:32:18;;;;;;;3.07;2.63;;;24.50;57.50;;;;;;5020223;28;21021;-71
2022/08/20 06:34:56;;;;;;;3.40;3.10;;;24.50;57.60;;;;;;5000158;28;21070;-71
2022/08/20 06:37:29;;;;;;;3.53;3.23;;;24.50;57.50;;;;;;5018563;28;20444;-71
2022/08/20 06:40:02;;;;;;;3.40;3.10;;;24.50;57.40;;;;;;5032529;28;20463;-71
2022/08/20 06:42:32;;;;;;;2.97;2.70;;;24.50;57.50;;;;;;5048883;28;21075;-71
2022/08/20 06:45:03;;;;;;;3.00;2.80;;;24.50;57.40;;;;;;5017995;28;20484;-71
2022/08/20 06:47:33;;;;;;;4.73;2.97;;;24.50;57.40;;;;;;5017320;28;20543;-71
2022/08/20 06:50:01;;;;;;;3.40;3.10;;;24.50;57.40;;;;;;5007933;28;20472;-71
2022/08/20 06:52:30;;;;;;;3.30;2.90;;;24.50;57.30;;;;;;5019634;28;20459;-71
2022/08/20 06:55:19;;;;;;;3.10;2.90;;;24.50;57.30;;;;;;5017438;28;20519;-70
2022/08/20 06:57:56;;;;;;;3.70;3.40;;;24.50;57.30;;;;;;5002230;28;20436;-71
2022/08/20 07:00:26;;;;;;;3.20;2.80;;;24.50;57.40;;;;;;5020364;28;20475;-70
2022/08/20 07:02:55;;;;;;;3.40;3.10;;;24.50;57.30;;;;;;5131332;23;21014;-65
2022/08/20 07:05:24;;;;;;;3.40;2.80;;;24.50;57.20;;;;;;5007893;28;20471;-65
2022/08/20 07:07:52;;;;;;;5.70;5.20;;;24.60;57.10;;;;;;5019825;28;20465;-65
2022/08/20 07:10:23;;;;;;;5.93;4.90;;;24.60;56.50;;;;;;5006329;28;20476;-65
2022/08/20 07:12:53;;;;;;;5.33;4.60;;;24.70;56.10;;;;;;5025108;28;20460;-66
2022/08/20 07:15:24;;;;;;;6.50;5.67;;;24.70;56.00;;;;;;5015896;28;20471;-69
2022/08/20 07:17:56;;;;;;;5.43;4.93;;;24.80;55.70;;;;;;5025852;28;20847;-69
2022/08/20 07:20:31;;;;;;;5.70;5.20;;;24.80;57.00;;;;;;5021808;28;20476;-68
2022/08/20 07:23:00;;;;;;;6.20;5.60;;;24.90;55.60;;;;;;5006402;28;20495;-68
2022/08/20 07:25:30;;;;;;;5.43;4.90;;;24.90;55.60;;;;;;5018079;28;20566;-69
2022/08/20 07:28:02;;;;;;;4.93;4.50;;;24.90;55.20;;;;;;5008944;28;20506;-69
2022/08/20 07:33:25;;;;;;;5.07;4.60;;;24.90;54.80;;;;;;5034831;28;20509;-69
2022/08/20 07:35:56;;;;;;;5.00;4.30;;;24.90;54.80;;;;;;5026134;28;20843;-65
2022/08/20 07:38:26;;;;;;;5.60;4.33;;;24.90;54.70;;;;;;5008534;28;20884;-66
2022/08/20 07:40:57;;;;;;;4.33;3.90;;;24.90;55.00;;;;;;5023509;28;20444;-65
2022/08/20 07:43:28;;;;;;;3.80;3.37;;;24.80;55.20;;;;;;5008522;28;20469;-65
2022/08/20 07:46:00;;;;;;;4.97;4.57;;;24.70;55.40;;;;;;5036160;28;20498;-64
2022/08/20 07:48:29;;;;;;;4.10;3.80;;;24.70;55.60;;;;;;5010573;28;20850;-66
2022/08/20 07:51:02;;;;;;;3.90;3.60;;;24.60;55.80;;;;;;5026047;28;20534;-67
2022/08/20 07:53:32;;;;;;;4.13;3.60;;;24.60;55.90;;;;;;5026396;28;20459;-66
2022/08/20 07:56:05;;;;;;;4.30;3.90;;;24.50;56.00;;;;;;5037492;28;20518;-66
2022/08/20 07:58:37;;;;;;;3.70;3.50;;;24.50;56.10;;;;;;5025586;28;20454;-66
2022/08/20 08:01:06;;;;;;;4.13;3.60;;;24.50;56.20;;;;;;5018192;28;20542;-67
2022/08/20 08:03:36;;;;;;;4.00;3.60;;;24.50;56.20;;;;;;5018993;28;20555;-70
2022/08/20 08:06:22;;;;;;;5.70;4.20;;;24.50;56.20;;;;;;5026246;28;20939;-72
2022/08/20 08:09:02;;;;;;;4.10;3.70;;;24.50;56.20;;;;;;5029999;28;20481;-70
2022/08/20 08:11:32;;;;;;;4.10;3.80;;;24.50;56.20;;;;;;5010375;28;20450;-71
2022/08/20 08:14:05;;;;;;;3.80;3.43;;;24.50;56.20;;;;;;5025390;28;20471;-72
2022/08/20 08:16:34;;;;;;;7.77;3.40;;;24.50;56.10;;;;;;5046870;28;20501;-65
2022/08/20 08:19:06;;;;;;;5.30;4.63;;;24.50;56.10;;;;;;5032389;28;20520;-67
2022/08/20 08:21:34;;;;;;;5.00;4.60;;;24.50;56.20;;;;;;5038545;28;20477;-67
2022/08/20 08:24:03;;;;;;;7.37;6.77;;;24.50;56.20;;;;;;5037520;28;20868;-66
2022/08/20 08:26:32;;;;;;;8.23;7.20;;;24.50;56.40;;;;;;5038344;28;20432;-66
2022/08/20 08:29:02;;;;;;;8.00;7.23;;;24.40;56.50;;;;;;5029014;28;20506;-66
2022/08/20 08:31:30;;;;;;;9.43;7.50;;;24.30;56.70;;;;;;5027319;28;20436;-71
2022/08/20 08:33:59;;;;;;;6.60;6.10;;;24.20;57.10;;;;;;5031340;28;20439;-71
2022/08/20 08:36:27;;;;;;;6.50;5.60;;;24.10;57.10;;;;;;5029230;28;20477;-73
2022/08/20 08:38:56;;;;;;;7.10;6.40;;;24.10;57.40;;;;;;5024855;28;20443;-72
2022/08/20 08:41:30;;;;;;;7.03;5.73;;;24.00;57.50;;;;;;5055186;28;20439;-73
2022/08/20 08:44:06;;;;;;;6.90;6.30;;;24.00;57.80;;;;;;5033804;28;20505;-73
2022/08/20 08:46:40;;;;;;;6.90;6.00;;;23.90;57.90;;;;;;5041882;28;20415;-72
2022/08/20 08:49:12;;;;;;;7.43;6.73;;;23.90;57.90;;;;;;5038525;28;20471;-66
2022/08/20 08:51:45;;;;;;;8.07;5.97;;;23.90;58.10;;;;;;5029467;28;20539;-66
2022/08/20 08:54:16;;;;;;;6.50;5.00;;;23.90;58.10;;;;;;5051290;28;20471;-67
2022/08/20 08:56:45;;;;;;;5.80;5.10;;;23.90;58.20;;;;;;5043173;28;20454;-66
2022/08/20 08:59:21;;;;;;;5.20;4.70;;;23.90;58.10;;;;;;5037125;28;20439;-68
2022/08/20 09:01:52;;;;;;;10.10;5.43;;;23.90;58.10;;;;;;5040291;28;20889;-67
2022/08/20 09:04:30;;;;;;;5.53;5.03;;;24.00;57.90;;;;;;5033735;28;20536;-67
2022/08/20 09:07:01;;;;;;;8.60;5.43;;;24.10;57.60;;;;;;5020179;28;20466;-65
2022/08/20 09:09:32;;;;;;;5.20;4.70;;;24.10;57.20;;;;;;5016750;28;20455;-66
2022/08/20 09:12:06;;;;;;;5.57;4.73;;;24.20;57.00;;;;;;5025834;28;20447;-66
2022/08/20 09:14:36;;;;;;;7.07;5.30;;;24.20;56.80;;;;;;5039971;28;20466;-67
2022/08/20 09:17:06;;;;;;;4.80;4.40;;;24.20;56.80;;;;;;5027294;28;21007;-67
2022/08/20 09:19:34;;;;;;;5.50;5.03;;;24.30;57.00;;;;;;5017009;28;20451;-66
2022/08/20 09:22:07;;;;;;;7.10;5.33;;;24.30;56.70;;;;;;5015331;28;20602;-67
2022/08/20 09:24:36;;;;;;;5.27;4.40;;;24.30;56.60;;;;;;5033892;28;20490;-66
2022/08/20 09:27:05;;;;;;;5.50;3.90;;;24.30;56.40;;;;;;5025440;28;20439;-67
2022/08/20 09:29:34;;;;;;;3.97;3.60;;;24.30;56.40;;;;;;5032021;28;20439;-65
2022/08/20 09:32:09;;;;;;;4.70;4.10;;;24.30;56.50;;;;;;5034555;28;20466;-66
2022/08/20 09:34:39;;;;;;;5.17;4.53;;;24.30;56.60;;;;;;5013150;28;20471;-68
2022/08/20 09:37:08;;;;;;;7.70;4.30;;;24.20;56.70;;;;;;5019501;28;20502;-67
2022/08/20 09:39:37;;;;;;;5.33;4.50;;;24.30;56.60;;;;;;5027460;28;20545;-67
2022/08/20 09:42:10;;;;;;;5.03;3.93;;;24.30;56.60;;;;;;5039268;28;20471;-66
2022/08/20 09:44:39;;;;;;;5.87;4.00;;;24.20;56.60;;;;;;5035282;28;20468;-68
2022/08/20 09:47:09;;;;;;;6.83;4.83;;;24.20;56.60;;;;;;5025488;28;20898;-68
2022/08/20 09:49:37;;;;;;;7.70;4.70;;;24.20;56.70;;;;;;5038845;28;20499;-66
2022/08/20 09:52:09;;;;;;;5.00;4.40;;;24.20;56.60;;;;;;5022070;28;20468;-67
2022/08/20 09:54:39;;;;;;;4.90;4.40;;;24.20;56.50;;;;;;5032292;28;20467;-67
2022/08/20 09:57:15;;;;;;;8.60;5.20;;;24.20;56.60;;;;;;5046649;28;20465;-67
2022/08/20 09:59:47;;;;;;;5.10;3.97;;;24.20;56.70;;;;;;5040558;28;20986;-67
2022/08/20 10:06:04;;;;;;;6.90;5.10;;;24.10;56.20;;;;;;5134167;22;20585;-52
2022/08/20 10:08:32;;;;;;;11.13;5.07;;;24.20;57.20;;;;;;5076948;28;20983;-53
2022/08/20 10:11:01;;;;;;;6.53;5.30;;;24.20;57.50;;;;;;5071961;28;20516;-54
2022/08/20 10:13:30;;;;;;;8.90;5.87;;;24.20;57.30;;;;;;5089624;28;20448;-53
2022/08/20 10:15:58;;;;;;;7.27;5.90;;;24.20;57.50;;;;;;5067889;28;20437;-53
2022/08/20 10:18:26;;;;;;;6.10;5.40;;;24.20;57.60;;;;;;5068629;28;20433;-54
2022/08/20 10:20:55;;;;;;;6.50;5.20;;;24.20;57.50;;;;;;5067731;28;20449;-53
2022/08/20 10:23:25;;;;;;;9.73;5.97;;;24.20;57.30;;;;;;5061124;28;20466;-54
2022/08/20 10:25:53;;;;;;;7.23;5.53;;;24.20;57.20;;;;;;5068996;28;20437;-55
2022/08/20 10:28:22;;;;;;;7.13;5.20;;;24.10;57.10;;;;;;5065460;28;20424;-52
2022/08/20 10:30:51;;;;;;;6.53;5.43;;;24.20;57.10;;;;;;5056506;28;20441;-51
2022/08/20 10:33:20;;;;;;;6.13;5.20;;;24.20;57.00;;;;;;5063737;28;20505;-54
2022/08/20 10:35:49;;;;;;;7.33;5.80;;;24.20;56.80;;;;;;5069287;28;20461;-52
2022/08/20 10:38:20;;;;;;;5.30;4.57;;;24.10;57.40;;;;;;5090811;28;20658;-53
2022/08/20 10:40:50;;;;;;;5.60;4.73;;;24.10;57.20;;;;;;5061056;28;21177;-54
2022/08/20 10:43:19;;;;;;;7.30;4.67;;;24.10;57.20;;;;;;5054020;28;20464;-53
2022/08/20 10:45:48;;;;;;;10.43;5.60;;;24.10;57.40;;;;;;5084619;28;20492;-53
2022/08/20 10:48:16;;;;;;;5.90;4.17;;;24.10;57.30;;;;;;5077721;28;20453;-52
2022/08/20 10:50:48;;;;;;;6.00;4.93;;;24.10;57.40;;;;;;5083378;28;20530;-53
2022/08/20 10:53:17;;;;;;;7.40;5.03;;;24.10;57.30;;;;;;5081954;28;20825;-54
2022/08/20 10:55:46;;;;;;;6.23;4.97;;;24.10;57.20;;;;;;5080985;28;20464;-52
2022/08/20 10:58:16;;;;;;;8.50;4.80;;;24.10;57.00;;;;;;5078180;28;20483;-53
2022/08/20 11:00:47;;;;;;;5.43;4.87;;;24.10;57.00;;;;;;5083770;28;21019;-53
2022/08/20 11:03:15;;;;;;;5.40;4.40;;;24.10;57.10;;;;;;5083320;28;21033;-54
2022/08/20 11:05:44;;;;;;;4.13;3.83;;;24.10;57.00;;;;;;5094679;28;20501;-53
2022/08/20 11:08:13;;;;;;;5.57;3.90;;;24.10;57.10;;;;;;5077799;28;20427;-51
2022/08/20 11:10:41;;;;;;;4.17;3.77;;;24.20;57.10;;;;;;5076438;28;21025;-52
2022/08/20 11:13:10;;;;;;;5.63;4.13;;;24.10;57.00;;;;;;5075410;28;20462;-53
2022/08/20 11:15:43;;;;;;;6.07;3.77;;;24.20;57.00;;;;;;5078355;28;20841;-52
2022/08/20 11:18:12;;;;;;;5.33;4.13;;;24.20;57.00;;;;;;5071564;28;20802;-53
2022/08/20 11:20:41;;;;;;;4.73;4.10;;;24.20;57.10;;;;;;5068198;28;20531;-53
2022/08/20 11:23:09;;;;;;;4.87;3.83;;;24.20;56.90;;;;;;5071213;28;20452;-51
2022/08/20 11:25:38;;;;;;;5.03;4.60;;;24.20;56.90;;;;;;5071835;28;20501;-51
2022/08/20 11:28:07;;;;;;;7.07;4.20;;;24.20;56.80;;;;;;5069755;28;20450;-52
2022/08/20 11:30:36;;;;;;;5.17;4.00;;;24.20;56.70;;;;;;5053729;28;20474;-52
2022/08/20 11:33:07;;;;;;;6.07;4.67;;;24.20;56.70;;;;;;5085947;28;20809;-54
2022/08/20 11:35:38;;;;;;;5.20;4.70;;;24.30;56.70;;;;;;5068122;28;20481;-54
2022/08/20 11:38:17;;;;;;;5.83;5.23;;;24.20;56.60;;;;;;5071814;28;20430;-54
2022/08/20 11:40:46;;;;;;;5.10;4.60;;;24.20;56.50;;;;;;5066790;28;20681;-54
2022/08/20 11:43:15;;;;;;;5.20;4.43;;;24.20;56.40;;;;;;5065974;28;20462;-53
2022/08/20 11:45:47;;;;;;;5.30;4.10;;;24.20;56.40;;;;;;5085482;28;20510;-52
2022/08/20 11:48:17;;;;;;;4.40;3.90;;;24.20;56.40;;;;;;5070512;28;20760;-52
2022/08/20 11:50:49;;;;;;;4.90;4.50;;;24.30;56.40;;;;;;5079176;28;20462;-53
2022/08/20 11:53:17;;;;;;;7.13;4.97;;;24.30;56.50;;;;;;5066742;28;20516;-53
2022/08/20 11:55:47;;;;;;;7.97;4.67;;;24.30;56.40;;;;;;5065295;28;20466;-52
2022/08/20 11:58:16;;;;;;;7.80;5.73;;;24.30;56.30;;;;;;5075389;28;20435;-52
2022/08/20 12:00:47;;;;;;;5.87;4.90;;;24.30;56.10;;;;;;5053913;28;20516;-52
2022/08/20 12:03:17;;;;;;;7.00;5.57;;;24.40;56.20;;;;;;5053427;28;20462;-52
2022/08/20 12:05:46;;;;;;;7.57;5.30;;;24.30;56.10;;;;;;5062602;28;20482;-53
2022/08/20 12:08:16;;;;;;;6.40;5.30;;;24.30;55.90;;;;;;5054387;28;20431;-53
2022/08/20 12:10:57;;;;;;;7.93;5.30;;;24.40;56.10;;;;;;5079431;28;20948;-52
2022/08/20 12:13:27;;;;;;;6.87;5.60;;;24.40;56.20;;;;;;5064761;28;20464;-54
2022/08/20 12:16:16;;;;;;;9.83;5.57;;;24.40;56.00;;;;;;5068613;28;20818;-52
2022/08/20 12:18:47;;;;;;;8.23;5.23;;;24.40;55.90;;;;;;5069459;28;20469;-53
2022/08/20 12:21:15;;;;;;;8.43;6.17;;;24.40;55.90;;;;;;5052175;28;20875;-54
2022/08/20 12:23:44;;;;;;;8.83;6.07;;;24.40;55.80;;;;;;5054396;28;20469;-54
2022/08/20 12:26:15;;;;;;;8.70;5.43;;;24.40;55.80;;;;;;5054316;28;20489;-53
2022/08/20 12:28:43;;;;;;;9.00;6.40;;;24.40;55.80;;;;;;5037985;28;22473;-53
2022/08/20 12:31:12;;;;;;;6.87;5.57;;;24.40;55.60;;;;;;5060620;28;20858;-52
2022/08/20 12:33:40;;;;;;;9.13;6.30;;;24.30;55.40;;;;;;5052152;28;20482;-52
2022/08/20 12:36:10;;;;;;;5.13;4.60;;;24.30;54.50;;;;;;5052044;28;20446;-53
2022/08/20 12:38:39;;;;;;;8.40;6.03;;;24.30;54.90;;;;;;5071337;28;20607;-53
2022/08/20 12:41:07;;;;;;;7.10;5.50;;;24.30;54.90;;;;;;5069271;28;20460;-54
2022/08/20 12:43:36;;;;;;;7.88;5.03;;;24.30;54.90;;;;;;5091407;28;20781;-51
2022/08/20 12:46:04;;;;;;;8.27;5.80;;;24.30;54.90;;;;;;5090350;28;20204;-53
2022/08/20 12:48:32;;;;;;;10.30;5.47;;;24.30;55.00;;;;;;5072812;28;20429;-51
2022/08/20 12:51:01;;;;;;;8.43;4.90;;;24.30;55.00;;;;;;5070676;28;20476;-53
2022/08/20 12:53:31;;;;;;;6.07;5.47;;;24.30;54.70;;;;;;5071592;28;20453;-53
2022/08/20 12:56:04;;;;;;;6.90;4.90;;;24.30;54.60;;;;;;5052195;28;20462;-52
2022/08/20 12:58:35;;;;;;;7.70;4.37;;;24.40;54.70;;;;;;5050908;28;20491;-52
2022/08/20 13:01:04;;;;;;;5.33;3.87;;;24.40;54.30;;;;;;5067616;28;20991;-52
2022/08/20 13:03:32;;;;;;;9.00;4.60;;;24.40;54.30;;;;;;5060372;22;21001;-96
2022/08/20 13:06:10;;;;;;;7.50;4.70;;;24.40;54.00;;;;;;5051813;28;20467;-95
2022/08/20 13:08:39;;;;;;;7.17;4.93;;;24.40;54.00;;;;;;5052317;28;20538;-96
2022/08/20 13:11:07;;;;;;;4.50;4.10;;;24.40;54.00;;;;;;5051905;28;20486;-95
2022/08/20 13:13:35;;;;;;;4.43;3.60;;;24.40;53.60;;;;;;5059509;28;21034;-96